Time;durP1;ratioP1;P1;durP2;ratioP2;P2;SDS_P1;SDS_P2;PMS_P1;PMS_P2;Temp;Humidity;BMP_temperature;BMP_pressure;BME280_temperature;BME280_humidity;BME280_pressure;Samples;Min_cycle;Max_cycle;Signal;HPM_P1;HPM_P2
2023/12/17 00:01:58;;;;;;;15.82;12.45;;;9.50;99.90;;;;;;5105733;28;20050;-65
2023/12/17 00:04:24;;;;;;;17.08;11.75;;;9.50;99.90;;;;;;5104889;28;20043;-65
2023/12/17 00:06:50;;;;;;;14.98;12.30;;;9.50;99.90;;;;;;5097453;28;20031;-65
2023/12/17 00:09:15;;;;;;;15.98;11.32;;;9.50;99.90;;;;;;5103206;28;20097;-65
2023/12/17 00:11:41;;;;;;;15.52;11.77;;;9.50;99.90;;;;;;5102545;28;20028;-65
2023/12/17 00:14:11;;;;;;;17.05;11.70;;;9.60;99.90;;;;;;5098060;28;20489;-65
2023/12/17 00:16:36;;;;;;;19.65;11.77;;;9.50;99.90;;;;;;5104583;28;20507;-65
2023/12/17 00:19:02;;;;;;;14.60;11.63;;;9.50;99.90;;;;;;5081821;28;20039;-65
2023/12/17 00:21:28;;;;;;;15.05;11.40;;;9.50;99.90;;;;;;5099893;28;20526;-65
2023/12/17 00:23:54;;;;;;;14.00;10.45;;;9.50;99.90;;;;;;5102870;28;20050;-65
2023/12/17 00:26:19;;;;;;;14.60;11.38;;;9.50;99.90;;;;;;5106599;28;20062;-65
2023/12/17 00:28:45;;;;;;;12.68;10.25;;;9.50;99.90;;;;;;5097348;28;20123;-65
2023/12/17 00:31:11;;;;;;;14.15;10.88;;;9.50;99.90;;;;;;5103739;28;20402;-65
2023/12/17 00:33:36;;;;;;;14.00;10.23;;;9.50;99.90;;;;;;5095366;28;20548;-65
2023/12/17 00:36:03;;;;;;;14.50;9.65;;;9.50;99.90;;;;;;5108320;28;20084;-65
2023/12/17 00:38:28;;;;;;;16.00;10.25;;;9.50;99.90;;;;;;5091559;28;20115;-65
2023/12/17 00:40:54;;;;;;;13.07;9.85;;;9.40;99.90;;;;;;5091104;28;20169;-65
2023/12/17 00:43:20;;;;;;;13.93;10.02;;;9.50;99.90;;;;;;5092218;28;20036;-65
2023/12/17 00:45:45;;;;;;;14.27;10.02;;;9.40;99.90;;;;;;5091699;28;20051;-65
2023/12/17 00:48:11;;;;;;;16.88;10.75;;;9.50;99.90;;;;;;5103767;28;20604;-65
2023/12/17 00:50:37;;;;;;;16.08;10.13;;;9.50;99.90;;;;;;5103737;28;20031;-65
2023/12/17 00:53:02;;;;;;;14.80;9.63;;;9.40;99.90;;;;;;5091685;28;20054;-65
2023/12/17 00:55:28;;;;;;;14.55;10.18;;;9.50;99.90;;;;;;5102664;28;20382;-65
2023/12/17 00:57:54;;;;;;;15.68;10.07;;;9.50;99.90;;;;;;5093315;28;20271;-65
2023/12/17 01:00:19;;;;;;;11.13;9.35;;;9.50;99.90;;;;;;5113048;28;20049;-65
2023/12/17 01:02:45;;;;;;;13.13;9.68;;;9.50;99.90;;;;;;5101496;28;20032;-65
2023/12/17 01:05:12;;;;;;;12.10;8.68;;;9.50;99.90;;;;;;5112960;28;20042;-65
2023/12/17 01:07:37;;;;;;;12.07;9.00;;;9.50;99.90;;;;;;5098062;28;20044;-65
2023/12/17 01:10:04;;;;;;;15.93;10.13;;;9.50;99.90;;;;;;5104207;28;20043;-65
2023/12/17 01:12:29;;;;;;;13.75;9.38;;;9.50;99.90;;;;;;5095827;28;20113;-65
2023/12/17 01:14:55;;;;;;;16.70;10.07;;;9.50;99.90;;;;;;5076675;28;20496;-65
2023/12/17 01:17:21;;;;;;;13.48;9.65;;;9.50;99.90;;;;;;5112835;28;20032;-65
2023/12/17 01:19:46;;;;;;;14.05;9.77;;;9.50;99.90;;;;;;5094288;28;20493;-65
2023/12/17 01:22:12;;;;;;;15.95;10.52;;;9.40;99.90;;;;;;5096436;28;20085;-65
2023/12/17 01:24:39;;;;;;;15.55;10.13;;;9.40;99.90;;;;;;5090601;28;20047;-65
2023/12/17 01:27:05;;;;;;;16.95;9.70;;;9.40;99.90;;;;;;5082131;28;20047;-65
2023/12/17 01:29:31;;;;;;;15.98;10.80;;;9.40;99.90;;;;;;5091674;28;20039;-65
2023/12/17 01:31:57;;;;;;;17.13;10.60;;;9.40;99.90;;;;;;5091889;28;20505;-65
2023/12/17 01:34:24;;;;;;;15.02;9.95;;;9.40;99.90;;;;;;5088441;28;20043;-65
2023/12/17 01:36:49;;;;;;;16.73;10.32;;;9.40;99.90;;;;;;5087603;28;20594;-65
2023/12/17 01:39:16;;;;;;;14.57;11.15;;;9.40;99.90;;;;;;5081694;28;20040;-65
2023/12/17 01:41:42;;;;;;;13.98;10.13;;;9.40;99.90;;;;;;5086276;28;20036;-65
2023/12/17 01:44:08;;;;;;;15.50;10.52;;;9.40;99.90;;;;;;5091721;28;20040;-65
2023/12/17 01:46:34;;;;;;;16.08;11.05;;;9.40;99.90;;;;;;5112405;28;20039;-65
2023/12/17 01:49:00;;;;;;;12.23;10.00;;;9.40;99.90;;;;;;5101153;28;20044;-65
2023/12/17 01:51:27;;;;;;;19.77;11.43;;;9.40;99.90;;;;;;5100992;28;20032;-65
2023/12/17 01:53:53;;;;;;;14.43;10.45;;;9.40;99.90;;;;;;5092770;28;20125;-65
2023/12/17 01:56:19;;;;;;;12.02;10.05;;;9.40;99.90;;;;;;5097253;28;20590;-65
2023/12/17 01:58:45;;;;;;;14.95;10.60;;;9.40;99.90;;;;;;5094953;28;20032;-65
2023/12/17 02:01:11;;;;;;;13.77;10.55;;;9.40;99.90;;;;;;5096041;28;20525;-65
2023/12/17 02:03:37;;;;;;;14.98;10.80;;;9.40;99.90;;;;;;5094734;28;20046;-65
2023/12/17 02:06:06;;;;;;;20.00;10.75;;;9.40;99.90;;;;;;5097218;28;20363;-65
2023/12/17 02:08:32;;;;;;;15.10;10.68;;;10.30;99.90;;;;;;5104057;28;20032;-65
2023/12/17 02:10:58;;;;;;;17.05;10.35;;;9.40;99.90;;;;;;5072443;28;20050;-65
2023/12/17 02:13:23;;;;;;;14.85;11.32;;;9.40;99.90;;;;;;5090561;28;20122;-65
2023/12/17 02:15:49;;;;;;;17.92;11.63;;;9.50;99.90;;;;;;5090604;28;20047;-65
2023/12/17 02:18:15;;;;;;;19.27;11.50;;;9.50;99.90;;;;;;5106500;28;20486;-65
2023/12/17 02:20:43;;;;;;;15.82;10.30;;;9.50;99.90;;;;;;5090935;28;20412;-65
2023/12/17 02:23:09;;;;;;;18.70;11.38;;;9.50;99.90;;;;;;5092297;28;20050;-65
2023/12/17 02:25:36;;;;;;;21.15;11.43;;;9.50;99.90;;;;;;5092796;28;20365;-65
2023/12/17 02:28:01;;;;;;;18.23;12.25;;;9.50;99.90;;;;;;5104692;28;20040;-65
2023/12/17 02:30:27;;;;;;;15.75;12.27;;;9.40;99.90;;;;;;5074713;28;20024;-65
2023/12/17 02:32:53;;;;;;;17.30;12.15;;;9.40;99.90;;;;;;5093887;28;20040;-65
2023/12/17 02:35:18;;;;;;;17.85;12.35;;;9.40;99.90;;;;;;5095595;28;20040;-65
2023/12/17 02:37:44;;;;;;;16.67;11.52;;;9.40;99.90;;;;;;5099864;28;20028;-65
2023/12/17 02:40:10;;;;;;;15.43;12.10;;;9.40;99.90;;;;;;5073948;28;20200;-65
2023/12/17 02:42:36;;;;;;;19.40;12.95;;;9.40;99.90;;;;;;5082525;28;20031;-65
2023/12/17 02:45:02;;;;;;;19.73;13.30;;;9.40;99.90;;;;;;5092818;28;20050;-65
2023/12/17 02:47:28;;;;;;;18.67;12.80;;;9.40;99.90;;;;;;5099564;28;20039;-65
2023/12/17 02:49:54;;;;;;;19.27;12.05;;;9.40;99.90;;;;;;5108553;28;20100;-65
2023/12/17 02:52:19;;;;;;;17.73;12.52;;;9.40;99.90;;;;;;5097430;28;20038;-65
2023/12/17 02:54:45;;;;;;;18.15;12.45;;;9.40;99.90;;;;;;5096922;28;20585;-65
2023/12/17 02:57:11;;;;;;;18.75;12.07;;;9.40;99.90;;;;;;5076754;28;20067;-65
2023/12/17 02:59:39;;;;;;;22.38;13.02;;;9.40;99.90;;;;;;5108527;28;20126;-65
2023/12/17 03:02:05;;;;;;;19.83;12.95;;;9.40;99.90;;;;;;5097419;28;20127;-65
2023/12/17 03:04:30;;;;;;;20.27;13.07;;;9.40;99.90;;;;;;5088734;28;20114;-65
2023/12/17 03:06:56;;;;;;;18.63;12.50;;;9.40;99.90;;;;;;5104616;28;20048;-66
2023/12/17 03:09:22;;;;;;;19.67;12.75;;;9.40;99.90;;;;;;5102339;28;20035;-65
2023/12/17 03:11:47;;;;;;;18.73;12.05;;;9.40;99.90;;;;;;5103209;28;20046;-65
2023/12/17 03:14:13;;;;;;;24.80;12.85;;;9.40;99.90;;;;;;5072569;28;20397;-65
2023/12/17 03:16:40;;;;;;;19.27;11.88;;;9.40;99.90;;;;;;5092538;28;20108;-65
2023/12/17 03:19:06;;;;;;;15.80;12.20;;;9.40;99.90;;;;;;5100657;28;20362;-65
2023/12/17 03:21:31;;;;;;;18.00;10.80;;;9.40;99.90;;;;;;5103763;28;20115;-66
2023/12/17 03:23:57;;;;;;;14.75;11.55;;;9.50;99.90;;;;;;5092274;28;20498;-65
2023/12/17 03:26:23;;;;;;;15.98;11.60;;;9.50;99.90;;;;;;5101968;28;20043;-66
2023/12/17 03:28:48;;;;;;;19.80;12.30;;;9.50;99.90;;;;;;5104409;28;20040;-66
2023/12/17 03:31:15;;;;;;;17.20;11.88;;;9.40;99.90;;;;;;5097727;28;20040;-66
2023/12/17 03:33:42;;;;;;;15.15;11.75;;;9.50;99.90;;;;;;5100608;28;20044;-65
2023/12/17 03:36:08;;;;;;;14.40;11.10;;;9.50;99.90;;;;;;5086258;28;20084;-65
2023/12/17 03:38:34;;;;;;;15.95;11.27;;;9.50;99.90;;;;;;5088201;28;20067;-65
2023/12/17 03:40:59;;;;;;;15.85;10.90;;;9.50;99.90;;;;;;5094801;28;20036;-65
2023/12/17 03:43:25;;;;;;;19.30;10.93;;;9.50;99.90;;;;;;5090416;28;20044;-66
2023/12/17 03:45:51;;;;;;;19.70;9.80;;;9.50;99.90;;;;;;5098449;28;20147;-66
2023/12/17 03:48:17;;;;;;;15.13;10.13;;;9.50;99.90;;;;;;5108674;28;20067;-65
2023/12/17 03:50:42;;;;;;;13.75;9.85;;;9.50;99.90;;;;;;5092433;28;20028;-65
2023/12/17 03:53:10;;;;;;;14.00;9.85;;;9.50;99.90;;;;;;5093208;28;20039;-66
2023/12/17 03:55:39;;;;;;;15.35;9.38;;;9.50;99.90;;;;;;5098675;28;20051;-66
2023/12/17 03:58:05;;;;;;;12.65;9.65;;;9.50;99.90;;;;;;5088236;28;20111;-65
2023/12/17 04:00:31;;;;;;;16.02;9.93;;;9.50;99.90;;;;;;5095763;28;20115;-65
2023/12/17 04:02:56;;;;;;;13.15;9.18;;;9.50;99.90;;;;;;5101428;28;20031;-65
2023/12/17 04:05:25;;;;;;;12.05;9.77;;;9.50;99.90;;;;;;5098597;28;20047;-65
2023/12/17 04:07:51;;;;;;;11.38;9.65;;;9.40;99.90;;;;;;5108703;28;20054;-65
2023/12/17 04:10:17;;;;;;;13.05;9.40;;;9.40;99.90;;;;;;5101703;28;20140;-65
2023/12/17 04:12:42;;;;;;;15.38;9.25;;;9.40;99.90;;;;;;5106213;28;20077;-66
2023/12/17 04:15:08;;;;;;;11.50;9.57;;;9.50;99.90;;;;;;5104994;28;20040;-65
2023/12/17 04:17:34;;;;;;;17.63;10.07;;;9.50;99.90;;;;;;5108545;28;20110;-65
2023/12/17 04:20:00;;;;;;;13.73;9.63;;;9.50;99.90;;;;;;5107778;28;20682;-65
2023/12/17 04:22:26;;;;;;;16.38;10.02;;;9.50;99.90;;;;;;5102518;28;20056;-65
2023/12/17 04:24:51;;;;;;;14.40;9.40;;;9.50;99.90;;;;;;5094073;28;20044;-66
2023/12/17 04:27:17;;;;;;;13.13;9.60;;;9.50;99.90;;;;;;5099312;28;20551;-65
2023/12/17 04:29:43;;;;;;;15.48;10.30;;;9.50;99.90;;;;;;5089747;28;20075;-65
2023/12/17 04:32:08;;;;;;;13.30;9.05;;;9.50;99.90;;;;;;5101554;28;20035;-65
2023/12/17 04:34:34;;;;;;;14.40;9.80;;;9.40;99.90;;;;;;5103002;28;20044;-65
2023/12/17 04:37:00;;;;;;;15.52;9.88;;;9.40;99.90;;;;;;5081298;28;20046;-65
2023/12/17 04:39:29;;;;;;;15.60;10.05;;;9.50;99.90;;;;;;5089565;28;20090;-65
2023/12/17 04:41:54;;;;;;;15.05;9.93;;;9.50;99.90;;;;;;5079975;28;20485;-65
2023/12/17 04:44:20;;;;;;;18.02;10.70;;;9.50;99.90;;;;;;5106621;28;20035;-65
2023/12/17 04:46:46;;;;;;;14.13;10.52;;;9.40;99.90;;;;;;5098606;28;20027;-65
2023/12/17 04:49:11;;;;;;;17.70;10.27;;;9.40;99.90;;;;;;5110295;28;20465;-65
2023/12/17 04:51:37;;;;;;;13.45;10.52;;;9.40;99.90;;;;;;5087752;28;20089;-65
2023/12/17 04:54:03;;;;;;;13.10;10.48;;;9.40;99.90;;;;;;5105003;28;20080;-65
2023/12/17 04:56:29;;;;;;;18.48;11.00;;;9.40;99.90;;;;;;5099276;28;20471;-65
2023/12/17 04:58:54;;;;;;;13.88;10.52;;;9.40;99.90;;;;;;5112048;28;20043;-65
2023/12/17 05:01:20;;;;;;;16.35;10.70;;;9.40;99.90;;;;;;5100443;28;20048;-65
2023/12/17 05:03:46;;;;;;;14.25;10.50;;;9.40;99.90;;;;;;5099982;28;20039;-65
2023/12/17 05:06:11;;;;;;;15.10;10.75;;;9.40;99.90;;;;;;5092054;28;20420;-65
2023/12/17 05:08:37;;;;;;;11.75;10.23;;;9.40;99.90;;;;;;5091641;28;20067;-65
2023/12/17 05:11:03;;;;;;;14.65;10.40;;;9.40;99.90;;;;;;5091669;28;20106;-65
2023/12/17 05:13:29;;;;;;;15.55;11.70;;;9.40;99.90;;;;;;5107852;28;20412;-65
2023/12/17 05:15:54;;;;;;;15.77;11.00;;;9.40;99.90;;;;;;5099785;28;20079;-65
2023/12/17 05:18:20;;;;;;;16.35;11.73;;;9.40;99.90;;;;;;5087555;28;20032;-66
2023/12/17 05:20:46;;;;;;;16.33;11.35;;;9.30;99.90;;;;;;5073882;28;20040;-66
2023/12/17 05:23:14;;;;;;;15.10;10.95;;;9.40;99.90;;;;;;5097532;28;20118;-66
2023/12/17 05:25:40;;;;;;;14.15;10.98;;;9.40;99.90;;;;;;5091243;28;20392;-66
2023/12/17 05:28:09;;;;;;;14.00;10.43;;;9.30;99.90;;;;;;5104095;28;20050;-66
2023/12/17 05:30:35;;;;;;;12.95;10.05;;;9.30;99.90;;;;;;5099059;28;20416;-65
2023/12/17 05:33:01;;;;;;;18.13;10.93;;;9.30;99.90;;;;;;5106959;28;20035;-65
2023/12/17 05:35:27;;;;;;;17.08;11.07;;;9.30;99.90;;;;;;5077143;28;20045;-65
2023/12/17 05:37:53;;;;;;;14.02;10.05;;;9.30;99.90;;;;;;5092702;28;20096;-65
2023/12/17 05:40:19;;;;;;;12.52;10.32;;;9.30;99.90;;;;;;5090285;28;20112;-65
2023/12/17 05:42:45;;;;;;;13.00;10.85;;;9.30;99.90;;;;;;5104229;28;20382;-65
2023/12/17 05:45:10;;;;;;;13.18;10.52;;;9.30;99.90;;;;;;5098493;28;20040;-65
2023/12/17 05:47:36;;;;;;;11.95;10.02;;;9.30;99.90;;;;;;5104945;28;20043;-65
2023/12/17 05:50:03;;;;;;;12.82;10.63;;;9.30;99.90;;;;;;5097170;28;20412;-65
2023/12/17 05:52:29;;;;;;;12.48;9.88;;;9.30;99.90;;;;;;5099101;28;20043;-65
2023/12/17 05:54:54;;;;;;;13.50;10.43;;;9.30;99.90;;;;;;5096121;28;20048;-65
2023/12/17 05:57:21;;;;;;;13.68;10.50;;;9.30;99.90;;;;;;5073011;28;20032;-65
2023/12/17 05:59:46;;;;;;;12.68;11.07;;;9.30;99.90;;;;;;5098944;28;20036;-65
2023/12/17 06:02:12;;;;;;;14.30;10.55;;;9.30;99.90;;;;;;5101224;28;20085;-65
2023/12/17 06:04:38;;;;;;;11.07;8.80;;;9.20;99.90;;;;;;5105553;28;20044;-65
2023/12/17 06:07:04;;;;;;;13.80;9.38;;;9.20;99.90;;;;;;5089731;28;20040;-65
2023/12/17 06:09:29;;;;;;;13.38;8.90;;;9.20;99.90;;;;;;5092528;28;20040;-66
2023/12/17 06:11:57;;;;;;;9.80;7.68;;;9.20;99.90;;;;;;5091018;28;20497;-65
2023/12/17 06:14:23;;;;;;;8.65;7.75;;;9.20;99.90;;;;;;5102863;28;20048;-65
2023/12/17 06:16:49;;;;;;;11.60;7.82;;;9.20;99.90;;;;;;5100400;28;20484;-65
2023/12/17 06:19:15;;;;;;;10.45;8.60;;;9.20;99.90;;;;;;5095156;28;20043;-65
2023/12/17 06:21:41;;;;;;;14.10;8.23;;;9.10;99.90;;;;;;5076438;28;20024;-65
2023/12/17 06:24:07;;;;;;;9.10;7.40;;;9.10;99.90;;;;;;5090831;28;20036;-65
2023/12/17 06:26:37;;;;;;;10.57;7.93;;;9.10;99.90;;;;;;5100151;28;20091;-65
2023/12/17 06:29:03;;;;;;;9.10;7.88;;;9.10;99.90;;;;;;5096304;28;20658;-65
2023/12/17 06:31:30;;;;;;;13.30;8.23;;;9.10;99.90;;;;;;5097247;28;20083;-65
2023/12/17 06:33:56;;;;;;;9.52;8.35;;;9.10;99.90;;;;;;5102954;28;20040;-65
2023/12/17 06:36:22;;;;;;;13.52;9.18;;;9.10;99.90;;;;;;5097223;28;20044;-65
2023/12/17 06:38:48;;;;;;;10.80;8.95;;;9.00;99.90;;;;;;5100496;28;20044;-65
2023/12/17 06:41:14;;;;;;;12.95;9.20;;;9.00;99.90;;;;;;5096727;28;20036;-65
2023/12/17 06:43:40;;;;;;;12.00;9.30;;;9.00;99.90;;;;;;5109512;28;20531;-65
2023/12/17 06:46:07;;;;;;;12.80;10.00;;;9.00;99.90;;;;;;5080579;28;20036;-65
2023/12/17 06:48:34;;;;;;;15.60;10.45;;;9.00;99.90;;;;;;5103430;28;20036;-65
2023/12/17 06:51:03;;;;;;;13.18;10.07;;;9.00;99.90;;;;;;5090003;28;20044;-65
2023/12/17 06:53:29;;;;;;;13.70;10.23;;;9.00;99.90;;;;;;5100837;28;20047;-65
2023/12/17 06:55:55;;;;;;;14.02;10.55;;;8.90;99.90;;;;;;5095352;28;20315;-65
2023/12/17 06:58:21;;;;;;;13.80;10.82;;;8.90;99.90;;;;;;5088180;28;20488;-65
2023/12/17 07:00:47;;;;;;;13.68;11.45;;;9.00;99.90;;;;;;5087880;28;20085;-65
2023/12/17 07:03:13;;;;;;;13.10;11.35;;;8.90;99.90;;;;;;5083472;28;20120;-65
2023/12/17 07:05:39;;;;;;;12.45;10.85;;;8.90;99.90;;;;;;5095472;28;20055;-65
2023/12/17 07:08:05;;;;;;;12.68;11.38;;;8.90;99.90;;;;;;5086665;28;20040;-65
2023/12/17 07:10:31;;;;;;;12.68;11.15;;;8.90;99.90;;;;;;5086756;28;20032;-65
2023/12/17 07:12:57;;;;;;;17.27;11.20;;;8.90;99.90;;;;;;5084932;28;20480;-65
2023/12/17 07:15:22;;;;;;;15.18;11.52;;;8.80;99.90;;;;;;5093807;28;20036;-65
2023/12/17 07:17:48;;;;;;;14.98;11.25;;;8.90;99.90;;;;;;5085729;28;20035;-65
2023/12/17 07:20:14;;;;;;;12.98;11.07;;;8.80;99.90;;;;;;5084566;28;20048;-65
2023/12/17 07:22:40;;;;;;;14.85;11.88;;;8.90;99.90;;;;;;5093899;28;20040;-65
2023/12/17 07:25:06;;;;;;;16.55;11.38;;;8.80;99.90;;;;;;5107455;28;20039;-65
2023/12/17 07:27:31;;;;;;;12.57;11.15;;;8.80;99.90;;;;;;5107132;28;20039;-65
2023/12/17 07:29:57;;;;;;;15.18;10.98;;;8.80;99.90;;;;;;5095648;28;20378;-65
2023/12/17 07:32:23;;;;;;;14.13;11.23;;;8.80;99.90;;;;;;5097241;28;20055;-65
2023/12/17 07:34:48;;;;;;;15.13;10.95;;;8.90;99.90;;;;;;5108661;28;20128;-65
2023/12/17 07:37:14;;;;;;;15.50;12.30;;;8.90;99.90;;;;;;5076034;28;20032;-65
2023/12/17 07:39:40;;;;;;;17.02;11.88;;;8.90;99.90;;;;;;5094128;28;20075;-65
2023/12/17 07:42:06;;;;;;;17.00;12.43;;;8.90;99.90;;;;;;5099268;28;20553;-65
2023/12/17 07:44:31;;;;;;;12.43;7.32;;;8.90;99.90;;;;;;5106513;28;20039;-67
2023/12/17 07:46:57;;;;;;;17.27;12.20;;;8.90;99.90;;;;;;5112046;28;20043;-65
2023/12/17 07:49:24;;;;;;;16.17;13.45;;;8.90;99.90;;;;;;5101492;28;20040;-65
2023/12/17 07:51:52;;;;;;;16.33;13.60;;;8.80;99.90;;;;;;5093091;28;20043;-64
2023/12/17 07:54:18;;;;;;;16.27;12.98;;;8.90;99.90;;;;;;5101168;28;20040;-65
2023/12/17 07:56:44;;;;;;;14.38;11.48;;;8.90;99.90;;;;;;5109060;28;20039;-65
2023/12/17 07:59:10;;;;;;;16.70;12.80;;;8.90;99.90;;;;;;5080972;28;20122;-65
2023/12/17 08:01:35;;;;;;;17.70;12.52;;;8.90;99.90;;;;;;5072561;28;20413;-65
2023/12/17 08:04:01;;;;;;;19.38;12.32;;;8.80;99.90;;;;;;5075453;28;20139;-64
2023/12/17 08:06:27;;;;;;;11.23;6.70;;;8.90;99.90;;;;;;5097776;28;20046;-65
2023/12/17 08:08:57;;;;;;;16.65;13.07;;;8.90;99.90;;;;;;5091313;28;20040;-64
2023/12/17 08:11:22;;;;;;;15.43;12.00;;;8.90;99.90;;;;;;5091979;28;20042;-65
2023/12/17 08:13:49;;;;;;;18.73;11.63;;;8.90;99.90;;;;;;5097816;28;20031;-64
2023/12/17 08:16:14;;;;;;;15.40;11.73;;;8.90;99.90;;;;;;5106493;28;20672;-65
2023/12/17 08:18:40;;;;;;;15.30;11.40;;;8.80;99.90;;;;;;5090953;28;20119;-64
2023/12/17 08:21:06;;;;;;;17.15;11.88;;;8.90;99.90;;;;;;5097632;28;20059;-65
2023/12/17 08:23:32;;;;;;;16.65;12.05;;;8.90;99.90;;;;;;5095759;28;20506;-65
2023/12/17 08:25:58;;;;;;;14.93;10.68;;;8.90;99.90;;;;;;5105915;28;20086;-65
2023/12/17 08:28:24;;;;;;;16.80;9.68;;;8.80;99.90;;;;;;5099351;28;20541;-65
2023/12/17 08:30:50;;;;;;;13.13;9.80;;;8.90;99.90;;;;;;5066735;28;20144;-65
2023/12/17 08:33:16;;;;;;;13.10;6.55;;;8.90;99.90;;;;;;5104792;28;20454;-65
2023/12/17 08:35:44;;;;;;;16.13;10.50;;;8.80;99.90;;;;;;5074897;28;20557;-65
2023/12/17 08:38:10;;;;;;;12.85;9.32;;;8.80;99.90;;;;;;5099089;28;20120;-65
2023/12/17 08:40:37;;;;;;;14.07;8.90;;;8.80;99.90;;;;;;5108024;27;20127;-65
2023/12/17 08:43:07;;;;;;;15.50;9.23;;;8.80;99.90;;;;;;5103487;28;20101;-65
2023/12/17 08:45:34;;;;;;;12.27;8.48;;;8.80;99.90;;;;;;5106137;28;20401;-65
2023/12/17 08:48:00;;;;;;;13.82;8.10;;;8.80;99.90;;;;;;5091298;28;20051;-65
2023/12/17 08:50:26;;;;;;;13.43;8.00;;;8.90;99.90;;;;;;5077494;28;20039;-66
2023/12/17 08:52:52;;;;;;;14.13;8.00;;;8.80;99.90;;;;;;5088227;28;20059;-65
2023/12/17 08:55:19;;;;;;;11.55;7.80;;;8.80;99.90;;;;;;5097012;28;20624;-65
2023/12/17 08:57:46;;;;;;;10.75;7.65;;;8.80;99.90;;;;;;5091193;28;20060;-65
2023/12/17 09:00:13;;;;;;;14.75;8.45;;;8.90;99.90;;;;;;5087691;28;20024;-65
2023/12/17 09:02:39;;;;;;;12.02;7.90;;;8.90;99.90;;;;;;5111771;28;20040;-65
2023/12/17 09:05:05;;;;;;;15.75;8.30;;;8.90;99.90;;;;;;5106918;28;20066;-65
2023/12/17 09:07:31;;;;;;;12.10;7.47;;;8.90;99.90;;;;;;5093674;28;20132;-65
2023/12/17 09:09:57;;;;;;;11.73;7.80;;;8.90;99.90;;;;;;5093224;28;20499;-65
2023/12/17 09:12:23;;;;;;;10.85;7.82;;;8.90;99.90;;;;;;5095552;28;20125;-65
2023/12/17 09:14:49;;;;;;;11.55;8.23;;;8.90;99.90;;;;;;5094100;28;20055;-65
2023/12/17 09:17:15;;;;;;;14.15;8.18;;;8.90;99.90;;;;;;5091991;28;20040;-65
2023/12/17 09:19:44;;;;;;;13.48;8.48;;;8.90;99.90;;;;;;5090000;28;20040;-65
2023/12/17 09:22:10;;;;;;;15.10;8.27;;;8.90;99.90;;;;;;5092982;28;20055;-65
2023/12/17 09:24:35;;;;;;;13.68;8.73;;;9.00;99.90;;;;;;5087458;28;20028;-65
2023/12/17 09:27:03;;;;;;;13.20;9.07;;;8.90;99.90;;;;;;5088672;28;20051;-65
2023/12/17 09:29:28;;;;;;;16.63;10.48;;;9.00;99.90;;;;;;5089276;28;20050;-65
2023/12/17 09:31:54;;;;;;;14.75;10.63;;;9.00;99.90;;;;;;5073689;28;20040;-65
2023/12/17 09:34:20;;;;;;;14.80;10.75;;;9.00;99.90;;;;;;5090341;28;20032;-65
2023/12/17 09:36:46;;;;;;;16.58;11.10;;;9.00;99.90;;;;;;5090556;28;20032;-65
2023/12/17 09:39:11;;;;;;;21.10;12.15;;;9.00;99.90;;;;;;5083017;28;20520;-65
2023/12/17 09:41:37;;;;;;;18.08;13.27;;;9.00;99.90;;;;;;5086230;28;20039;-66
2023/12/17 09:44:04;;;;;;;17.02;12.60;;;9.10;99.90;;;;;;5085919;28;20516;-65
2023/12/17 09:46:30;;;;;;;17.77;13.57;;;9.10;99.90;;;;;;5071289;28;20048;-65
2023/12/17 09:48:56;;;;;;;22.58;15.05;;;9.10;99.90;;;;;;5086437;28;20047;-65
2023/12/17 09:51:24;;;;;;;23.55;15.82;;;9.10;99.90;;;;;;5092287;28;20125;-65
2023/12/17 09:53:49;;;;;;;21.38;15.45;;;9.10;99.90;;;;;;5086742;28;20032;-65
2023/12/17 09:56:15;;;;;;;24.80;16.20;;;9.10;99.90;;;;;;5094014;28;20545;-65
2023/12/17 09:58:41;;;;;;;27.02;18.02;;;9.10;99.90;;;;;;5090743;28;20089;-65
2023/12/17 10:01:07;;;;;;;24.23;17.75;;;9.20;99.90;;;;;;5092413;28;20093;-65
2023/12/17 10:03:33;;;;;;;29.38;19.90;;;9.20;99.90;;;;;;5100151;28;20044;-65
2023/12/17 10:06:02;;;;;;;27.95;19.92;;;9.10;99.90;;;;;;5063228;28;20055;-65
2023/12/17 10:08:27;;;;;;;28.48;20.05;;;9.20;99.90;;;;;;5064450;28;20050;-65
2023/12/17 10:10:53;;;;;;;31.52;19.67;;;9.10;99.90;;;;;;5087168;28;20048;-65
2023/12/17 10:13:20;;;;;;;28.88;20.45;;;9.20;99.90;;;;;;5086103;28;20114;-65
2023/12/17 10:15:51;;;;;;;30.52;20.63;;;9.10;99.90;;;;;;5088533;28;20384;-65
2023/12/17 10:18:21;;;;;;;30.25;20.23;;;9.10;99.90;;;;;;5087449;28;20504;-65
2023/12/17 10:20:47;;;;;;;32.60;21.15;;;9.10;99.90;;;;;;5085897;28;20032;-65
2023/12/17 10:23:13;;;;;;;33.45;22.60;;;9.10;99.90;;;;;;5093028;28;20058;-65
2023/12/17 10:25:40;;;;;;;32.10;21.20;;;9.10;99.90;;;;;;5089841;28;20056;-65
2023/12/17 10:28:09;;;;;;;35.95;22.48;;;9.10;99.90;;;;;;5101328;28;20050;-65
2023/12/17 10:30:34;;;;;;;33.85;21.48;;;9.10;99.90;;;;;;5101581;28;20111;-64
2023/12/17 10:33:03;;;;;;;35.25;22.75;;;9.10;99.90;;;;;;5090247;28;20124;-65
2023/12/17 10:35:30;;;;;;;36.55;23.02;;;9.10;99.90;;;;;;5089255;28;20097;-65
2023/12/17 10:38:01;;;;;;;30.58;21.23;;;9.10;99.90;;;;;;5087597;28;20050;-65
2023/12/17 10:40:28;;;;;;;34.72;22.00;;;9.10;99.90;;;;;;5085535;28;20066;-65
2023/12/17 10:42:58;;;;;;;31.65;20.83;;;9.10;99.90;;;;;;5087268;28;20474;-65
2023/12/17 10:45:25;;;;;;;30.13;20.65;;;9.10;99.90;;;;;;5086009;28;20502;-65
2023/12/17 10:47:53;;;;;;;30.45;20.20;;;9.10;99.90;;;;;;5089559;28;20055;-63
2023/12/17 10:50:20;;;;;;;28.83;19.98;;;9.10;99.90;;;;;;5091233;28;20035;-65
2023/12/17 10:52:50;;;;;;;27.00;19.63;;;9.10;99.90;;;;;;5088385;28;20043;-65
2023/12/17 10:55:19;;;;;;;25.35;18.25;;;9.10;99.90;;;;;;5091902;28;20372;-65
2023/12/17 10:57:47;;;;;;;26.42;19.15;;;9.10;99.90;;;;;;5089791;28;20036;-65
2023/12/17 11:00:16;;;;;;;27.98;18.20;;;9.10;99.90;;;;;;5086498;28;20044;-65
2023/12/17 11:02:45;;;;;;;24.08;17.92;;;9.10;99.90;;;;;;5090094;28;20173;-64
2023/12/17 11:05:12;;;;;;;22.40;16.20;;;9.10;99.90;;;;;;5087808;28;20047;-65
2023/12/17 11:07:38;;;;;;;20.25;16.02;;;9.10;99.90;;;;;;5084788;28;20574;-64
2023/12/17 11:10:15;;;;;;;21.08;15.40;;;9.10;99.90;;;;;;5086802;28;20139;-64
2023/12/17 11:12:45;;;;;;;20.13;15.25;;;9.10;99.90;;;;;;5096849;28;20481;-64
2023/12/17 11:15:12;;;;;;;21.52;15.10;;;9.10;99.90;;;;;;5087894;28;20468;-65
2023/12/17 11:17:39;;;;;;;19.00;14.57;;;9.10;99.90;;;;;;5083388;28;20082;-65
2023/12/17 11:20:05;;;;;;;16.08;14.20;;;9.10;99.90;;;;;;5086129;28;20110;-65
2023/12/17 11:22:36;;;;;;;20.15;14.60;;;9.00;99.90;;;;;;5085248;28;20040;-65
2023/12/17 11:25:03;;;;;;;18.85;14.75;;;9.00;99.90;;;;;;5080602;28;20391;-65
2023/12/17 11:27:31;;;;;;;21.08;14.73;;;9.00;99.90;;;;;;5079190;28;20059;-65
2023/12/17 11:29:57;;;;;;;21.10;15.55;;;9.00;99.90;;;;;;5083685;28;20032;-65
2023/12/17 11:32:27;;;;;;;18.33;14.82;;;9.00;99.90;;;;;;5082906;28;20485;-65
2023/12/17 11:34:55;;;;;;;21.85;16.05;;;9.00;99.90;;;;;;5088208;28;20064;-65
2023/12/17 11:37:22;;;;;;;21.15;16.20;;;9.00;99.90;;;;;;5087204;28;20481;-65
2023/12/17 11:39:49;;;;;;;21.92;16.13;;;9.00;99.90;;;;;;5097128;28;20063;-65
2023/12/17 11:42:17;;;;;;;23.45;16.80;;;9.00;99.90;;;;;;5083915;28;20039;-65
2023/12/17 11:44:51;;;;;;;22.30;16.77;;;9.00;99.90;;;;;;5085082;28;20047;-65
2023/12/17 11:47:24;;;;;;;23.73;17.35;;;9.00;99.90;;;;;;5089053;28;20033;-65
2023/12/17 11:49:50;;;;;;;24.27;17.77;;;9.00;99.90;;;;;;5085432;28;20042;-65
2023/12/17 11:52:18;;;;;;;23.45;18.20;;;9.00;99.90;;;;;;5085030;28;20040;-65
2023/12/17 11:54:44;;;;;;;25.80;18.73;;;9.00;99.90;;;;;;5084057;28;20059;-65
2023/12/17 11:57:20;;;;;;;24.40;18.75;;;9.00;99.90;;;;;;5085869;28;20043;-65
2023/12/17 11:59:46;;;;;;;26.40;18.27;;;9.00;99.90;;;;;;5083521;28;20024;-65
2023/12/17 12:02:18;;;;;;;27.13;19.30;;;9.00;99.90;;;;;;5091745;28;20038;-65
2023/12/17 12:04:45;;;;;;;26.85;19.30;;;9.00;99.90;;;;;;5088591;28;20040;-65
2023/12/17 12:07:14;;;;;;;28.02;19.63;;;9.10;99.90;;;;;;5083874;28;20043;-65
2023/12/17 12:09:40;;;;;;;28.25;19.42;;;9.10;99.90;;;;;;5082546;28;20033;-65
2023/12/17 12:12:20;;;;;;;29.55;20.50;;;9.10;99.90;;;;;;5086759;28;20377;-65
2023/12/17 12:14:48;;;;;;;28.25;19.90;;;9.10;99.90;;;;;;5087522;28;20035;-65
2023/12/17 12:17:40;;;;;;;29.95;21.92;;;9.00;99.90;;;;;;5093449;28;20468;-65
2023/12/17 12:20:10;;;;;;;29.92;21.20;;;9.10;99.90;;;;;;5087427;28;20036;-66
2023/12/17 12:22:37;;;;;;;30.98;21.35;;;9.10;99.90;;;;;;5071071;28;20071;-65
2023/12/17 12:25:03;;;;;;;32.53;21.55;;;9.00;99.90;;;;;;5094439;28;20047;-65
2023/12/17 12:27:30;;;;;;;30.13;21.33;;;9.10;99.90;;;;;;5091769;28;20044;-65
2023/12/17 12:29:57;;;;;;;29.45;21.17;;;9.00;99.90;;;;;;5094046;28;20111;-65
2023/12/17 12:32:30;;;;;;;31.77;21.58;;;9.00;99.90;;;;;;5093102;28;20092;-65
2023/12/17 12:34:56;;;;;;;29.65;21.25;;;9.00;99.90;;;;;;5090697;28;20491;-65